sensor_id;sensor_type;location;lat;lon;timestamp;temperature;humidity
7129;DHT22;3606;52.930;8.644;2023-09-07T00:01:45;15.60;99.90
7129;DHT22;3606;52.930;8.644;2023-09-07T00:04:11;15.60;99.90
7129;DHT22;3606;52.930;8.644;2023-09-07T00:06:39;15.60;99.90
7129;DHT22;3606;52.930;8.644;2023-09-07T00:09:05;15.60;99.90
7129;DHT22;3606;52.930;8.644;2023-09-07T00:11:32;15.60;99.90
7129;DHT22;3606;52.930;8.644;2023-09-07T00:13:58;15.50;99.90
7129;DHT22;3606;52.930;8.644;2023-09-07T00:16:24;15.50;99.90
7129;DHT22;3606;52.930;8.644;2023-09-07T00:18:50;15.50;99.90
7129;DHT22;3606;52.930;8.644;2023-09-07T00:21:15;15.50;99.90
7129;DHT22;3606;52.930;8.644;2023-09-07T00:23:41;15.50;99.90
7129;DHT22;3606;52.930;8.644;2023-09-07T00:26:07;15.40;99.90
7129;DHT22;3606;52.930;8.644;2023-09-07T00:28:33;15.40;99.90
7129;DHT22;3606;52.930;8.644;2023-09-07T00:30:59;15.40;99.90
7129;DHT22;3606;52.930;8.644;2023-09-07T00:33:24;15.40;99.90
7129;DHT22;3606;52.930;8.644;2023-09-07T00:35:50;15.40;99.90
7129;DHT22;3606;52.930;8.644;2023-09-07T00:38:15;15.40;99.90
7129;DHT22;3606;52.930;8.644;2023-09-07T00:40:44;15.40;99.90
7129;DHT22;3606;52.930;8.644;2023-09-07T00:43:11;15.40;99.90
7129;DHT22;3606;52.930;8.644;2023-09-07T00:45:37;15.30;99.90
7129;DHT22;3606;52.930;8.644;2023-09-07T00:48:04;15.30;99.90
7129;DHT22;3606;52.930;8.644;2023-09-07T00:50:30;15.30;99.90
7129;DHT22;3606;52.930;8.644;2023-09-07T00:52:55;15.30;99.90
7129;DHT22;3606;52.930;8.644;2023-09-07T00:55:21;15.30;99.90
7129;DHT22;3606;52.930;8.644;2023-09-07T00:57:47;15.30;99.90
7129;DHT22;3606;52.930;8.644;2023-09-07T01:00:13;15.20;99.90
7129;DHT22;3606;52.930;8.644;2023-09-07T01:02:39;15.20;99.90
7129;DHT22;3606;52.930;8.644;2023-09-07T01:05:05;15.20;99.90
7129;DHT22;3606;52.930;8.644;2023-09-07T01:07:49;15.30;99.90
7129;DHT22;3606;52.930;8.644;2023-09-07T01:10:17;15.20;99.90
7129;DHT22;3606;52.930;8.644;2023-09-07T01:12:44;15.20;99.90
7129;DHT22;3606;52.930;8.644;2023-09-07T01:15:10;15.10;99.90
7129;DHT22;3606;52.930;8.644;2023-09-07T01:17:36;15.10;99.90
7129;DHT22;3606;52.930;8.644;2023-09-07T01:20:06;15.00;99.90
7129;DHT22;3606;52.930;8.644;2023-09-07T01:22:33;14.90;99.90
7129;DHT22;3606;52.930;8.644;2023-09-07T01:25:00;14.90;99.90
7129;DHT22;3606;52.930;8.644;2023-09-07T01:27:25;14.90;99.90
7129;DHT22;3606;52.930;8.644;2023-09-07T01:29:51;14.90;99.90
7129;DHT22;3606;52.930;8.644;2023-09-07T01:32:17;14.80;99.90
7129;DHT22;3606;52.930;8.644;2023-09-07T01:34:44;14.80;99.90
7129;DHT22;3606;52.930;8.644;2023-09-07T01:37:09;14.80;99.90
7129;DHT22;3606;52.930;8.644;2023-09-07T01:39:35;14.80;99.90
7129;DHT22;3606;52.930;8.644;2023-09-07T01:42:01;14.70;99.90
7129;DHT22;3606;52.930;8.644;2023-09-07T01:44:26;14.60;99.90
7129;DHT22;3606;52.930;8.644;2023-09-07T01:46:52;14.60;99.90
7129;DHT22;3606;52.930;8.644;2023-09-07T01:49:18;14.50;99.90
7129;DHT22;3606;52.930;8.644;2023-09-07T01:51:43;14.50;99.90
7129;DHT22;3606;52.930;8.644;2023-09-07T01:54:09;14.50;99.90
7129;DHT22;3606;52.930;8.644;2023-09-07T01:56:35;14.50;99.90
7129;DHT22;3606;52.930;8.644;2023-09-07T01:59:00;14.50;99.90
7129;DHT22;3606;52.930;8.644;2023-09-07T02:01:29;14.50;99.90
7129;DHT22;3606;52.930;8.644;2023-09-07T02:03:55;14.50;99.90
7129;DHT22;3606;52.930;8.644;2023-09-07T02:06:21;14.50;99.90
7129;DHT22;3606;52.930;8.644;2023-09-07T02:08:46;14.50;99.90
7129;DHT22;3606;52.930;8.644;2023-09-07T02:11:12;14.50;99.90
7129;DHT22;3606;52.930;8.644;2023-09-07T02:13:41;14.50;99.90
7129;DHT22;3606;52.930;8.644;2023-09-07T02:16:06;14.50;99.90
7129;DHT22;3606;52.930;8.644;2023-09-07T02:18:32;14.60;99.90
7129;DHT22;3606;52.930;8.644;2023-09-07T02:21:04;14.50;99.90
7129;DHT22;3606;52.930;8.644;2023-09-07T02:23:33;14.40;99.90
7129;DHT22;3606;52.930;8.644;2023-09-07T02:25:59;14.40;99.90
7129;DHT22;3606;52.930;8.644;2023-09-07T02:28:25;14.40;99.90
7129;DHT22;3606;52.930;8.644;2023-09-07T02:30:54;14.40;99.90
7129;DHT22;3606;52.930;8.644;2023-09-07T02:33:20;14.30;99.90
7129;DHT22;3606;52.930;8.644;2023-09-07T02:35:47;14.30;99.90
7129;DHT22;3606;52.930;8.644;2023-09-07T02:38:13;14.30;99.90
7129;DHT22;3606;52.930;8.644;2023-09-07T02:40:46;14.20;99.90
7129;DHT22;3606;52.930;8.644;2023-09-07T02:43:12;14.20;99.90
7129;DHT22;3606;52.930;8.644;2023-09-07T02:45:38;14.20;99.90
7129;DHT22;3606;52.930;8.644;2023-09-07T02:48:04;14.10;99.90
7129;DHT22;3606;52.930;8.644;2023-09-07T02:50:33;14.10;99.90
7129;DHT22;3606;52.930;8.644;2023-09-07T02:52:59;14.10;99.90
7129;DHT22;3606;52.930;8.644;2023-09-07T02:55:26;14.00;99.90
7129;DHT22;3606;52.930;8.644;2023-09-07T02:57:51;14.00;99.90
7129;DHT22;3606;52.930;8.644;2023-09-07T03:00:17;14.00;99.90
7129;DHT22;3606;52.930;8.644;2023-09-07T03:02:43;13.90;99.90
7129;DHT22;3606;52.930;8.644;2023-09-07T03:05:09;13.90;99.90
7129;DHT22;3606;52.930;8.644;2023-09-07T03:07:35;14.00;99.90
7129;DHT22;3606;52.930;8.644;2023-09-07T03:10:01;14.00;99.90
7129;DHT22;3606;52.930;8.644;2023-09-07T03:12:27;14.00;99.90
7129;DHT22;3606;52.930;8.644;2023-09-07T03:14:53;13.90;99.90
7129;DHT22;3606;52.930;8.644;2023-09-07T03:17:19;13.90;99.90
7129;DHT22;3606;52.930;8.644;2023-09-07T03:19:46;14.00;99.90
7129;DHT22;3606;52.930;8.644;2023-09-07T03:22:12;14.10;99.90
7129;DHT22;3606;52.930;8.644;2023-09-07T03:24:38;14.10;99.90
7129;DHT22;3606;52.930;8.644;2023-09-07T03:27:04;14.10;99.90
7129;DHT22;3606;52.930;8.644;2023-09-07T03:29:31;14.00;99.90
7129;DHT22;3606;52.930;8.644;2023-09-07T03:31:59;14.10;99.90
7129;DHT22;3606;52.930;8.644;2023-09-07T03:34:25;14.10;99.90
7129;DHT22;3606;52.930;8.644;2023-09-07T03:36:51;14.10;99.90
7129;DHT22;3606;52.930;8.644;2023-09-07T03:39:16;14.00;99.90
7129;DHT22;3606;52.930;8.644;2023-09-07T03:41:44;14.00;99.90
7129;DHT22;3606;52.930;8.644;2023-09-07T03:44:10;14.00;99.90
7129;DHT22;3606;52.930;8.644;2023-09-07T03:46:35;14.10;99.90
7129;DHT22;3606;52.930;8.644;2023-09-07T03:49:01;14.10;99.90
7129;DHT22;3606;52.930;8.644;2023-09-07T03:51:27;14.20;99.90
7129;DHT22;3606;52.930;8.644;2023-09-07T03:53:52;14.10;99.90
7129;DHT22;3606;52.930;8.644;2023-09-07T03:56:18;14.00;99.90
7129;DHT22;3606;52.930;8.644;2023-09-07T03:58:43;14.00;99.90
7129;DHT22;3606;52.930;8.644;2023-09-07T04:01:09;13.90;99.90
7129;DHT22;3606;52.930;8.644;2023-09-07T04:03:34;13.80;99.90
7129;DHT22;3606;52.930;8.644;2023-09-07T04:06:00;13.70;99.90
7129;DHT22;3606;52.930;8.644;2023-09-07T04:08:26;13.70;99.90
7129;DHT22;3606;52.930;8.644;2023-09-07T04:10:52;13.70;99.90
7129;DHT22;3606;52.930;8.644;2023-09-07T04:13:17;13.70;99.90
7129;DHT22;3606;52.930;8.644;2023-09-07T04:15:46;13.70;99.90
7129;DHT22;3606;52.930;8.644;2023-09-07T04:18:12;13.90;99.90
7129;DHT22;3606;52.930;8.644;2023-09-07T04:20:40;13.90;99.90
7129;DHT22;3606;52.930;8.644;2023-09-07T04:23:06;13.90;99.90
7129;DHT22;3606;52.930;8.644;2023-09-07T04:25:31;13.90;99.90
7129;DHT22;3606;52.930;8.644;2023-09-07T04:27:58;13.90;99.90
7129;DHT22;3606;52.930;8.644;2023-09-07T04:30:24;13.90;99.90
7129;DHT22;3606;52.930;8.644;2023-09-07T04:32:49;14.00;99.90
7129;DHT22;3606;52.930;8.644;2023-09-07T04:35:15;14.30;99.90
7129;DHT22;3606;52.930;8.644;2023-09-07T04:37:44;14.50;99.90
7129;DHT22;3606;52.930;8.644;2023-09-07T04:40:10;14.50;99.90
7129;DHT22;3606;52.930;8.644;2023-09-07T04:42:36;14.50;99.90
7129;DHT22;3606;52.930;8.644;2023-09-07T04:45:04;14.40;99.90
7129;DHT22;3606;52.930;8.644;2023-09-07T04:47:30;14.40;99.90
7129;DHT22;3606;52.930;8.644;2023-09-07T04:49:55;14.30;99.90
7129;DHT22;3606;52.930;8.644;2023-09-07T04:52:21;14.40;99.90
7129;DHT22;3606;52.930;8.644;2023-09-07T04:54:47;14.50;99.90
7129;DHT22;3606;52.930;8.644;2023-09-07T04:57:15;14.40;99.90
7129;DHT22;3606;52.930;8.644;2023-09-07T04:59:41;14.50;99.90
7129;DHT22;3606;52.930;8.644;2023-09-07T05:02:07;14.50;99.90
7129;DHT22;3606;52.930;8.644;2023-09-07T05:04:32;14.60;99.90
7129;DHT22;3606;52.930;8.644;2023-09-07T05:06:58;14.50;99.90
7129;DHT22;3606;52.930;8.644;2023-09-07T05:09:23;14.60;99.90
7129;DHT22;3606;52.930;8.644;2023-09-07T05:11:50;14.50;99.90
7129;DHT22;3606;52.930;8.644;2023-09-07T05:14:16;14.50;99.90
7129;DHT22;3606;52.930;8.644;2023-09-07T05:16:45;14.60;99.90
7129;DHT22;3606;52.930;8.644;2023-09-07T05:19:10;14.70;99.90
7129;DHT22;3606;52.930;8.644;2023-09-07T05:21:36;14.70;99.90
7129;DHT22;3606;52.930;8.644;2023-09-07T05:24:01;14.70;99.90
7129;DHT22;3606;52.930;8.644;2023-09-07T05:26:27;14.70;99.90
7129;DHT22;3606;52.930;8.644;2023-09-07T05:28:53;14.80;99.90
7129;DHT22;3606;52.930;8.644;2023-09-07T05:31:19;14.80;99.90
7129;DHT22;3606;52.930;8.644;2023-09-07T05:33:44;14.80;99.90
7129;DHT22;3606;52.930;8.644;2023-09-07T05:36:10;14.70;99.90
7129;DHT22;3606;52.930;8.644;2023-09-07T05:38:36;14.60;99.90
7129;DHT22;3606;52.930;8.644;2023-09-07T05:41:01;14.60;99.90
7129;DHT22;3606;52.930;8.644;2023-09-07T05:43:27;14.60;99.90
7129;DHT22;3606;52.930;8.644;2023-09-07T05:45:53;14.60;99.90
7129;DHT22;3606;52.930;8.644;2023-09-07T05:48:18;14.70;99.90
7129;DHT22;3606;52.930;8.644;2023-09-07T05:50:44;14.80;99.90
7129;DHT22;3606;52.930;8.644;2023-09-07T05:53:10;15.00;99.90
7129;DHT22;3606;52.930;8.644;2023-09-07T05:55:36;15.00;99.90
7129;DHT22;3606;52.930;8.644;2023-09-07T05:58:05;15.10;99.90
7129;DHT22;3606;52.930;8.644;2023-09-07T06:00:30;15.30;99.90
7129;DHT22;3606;52.930;8.644;2023-09-07T06:02:56;15.40;99.90
7129;DHT22;3606;52.930;8.644;2023-09-07T06:05:22;15.60;99.90
7129;DHT22;3606;52.930;8.644;2023-09-07T06:07:47;16.00;99.90
7129;DHT22;3606;52.930;8.644;2023-09-07T06:10:13;16.30;99.90
7129;DHT22;3606;52.930;8.644;2023-09-07T06:12:39;16.60;99.90
7129;DHT22;3606;52.930;8.644;2023-09-07T06:15:05;17.00;99.90
7129;DHT22;3606;52.930;8.644;2023-09-07T06:17:31;17.30;99.90
7129;DHT22;3606;52.930;8.644;2023-09-07T06:19:56;17.80;99.90
7129;DHT22;3606;52.930;8.644;2023-09-07T06:22:22;18.30;99.90
7129;DHT22;3606;52.930;8.644;2023-09-07T06:24:49;18.70;99.90
7129;DHT22;3606;52.930;8.644;2023-09-07T06:27:14;19.00;99.90
7129;DHT22;3606;52.930;8.644;2023-09-07T06:29:40;19.50;99.90
7129;DHT22;3606;52.930;8.644;2023-09-07T06:32:05;19.80;99.90
7129;DHT22;3606;52.930;8.644;2023-09-07T06:34:32;20.30;99.90
7129;DHT22;3606;52.930;8.644;2023-09-07T06:36:57;20.70;99.90
7129;DHT22;3606;52.930;8.644;2023-09-07T06:39:23;21.10;99.90
7129;DHT22;3606;52.930;8.644;2023-09-07T06:41:48;21.60;99.90
7129;DHT22;3606;52.930;8.644;2023-09-07T06:44:14;21.90;99.90
7129;DHT22;3606;52.930;8.644;2023-09-07T06:46:40;22.20;99.90
7129;DHT22;3606;52.930;8.644;2023-09-07T06:49:06;22.50;99.90
7129;DHT22;3606;52.930;8.644;2023-09-07T06:51:32;22.50;99.90
7129;DHT22;3606;52.930;8.644;2023-09-07T06:53:58;22.40;99.90
7129;DHT22;3606;52.930;8.644;2023-09-07T06:56:23;22.40;99.90
7129;DHT22;3606;52.930;8.644;2023-09-07T06:58:49;22.80;99.90
7129;DHT22;3606;52.930;8.644;2023-09-07T07:01:15;23.20;99.90
7129;DHT22;3606;52.930;8.644;2023-09-07T07:03:41;23.70;99.90
7129;DHT22;3606;52.930;8.644;2023-09-07T07:06:07;24.00;99.90
7129;DHT22;3606;52.930;8.644;2023-09-07T07:08:33;24.50;99.90
7129;DHT22;3606;52.930;8.644;2023-09-07T07:10:59;24.90;99.90
7129;DHT22;3606;52.930;8.644;2023-09-07T07:13:25;25.30;99.90
7129;DHT22;3606;52.930;8.644;2023-09-07T07:15:51;25.60;99.90
7129;DHT22;3606;52.930;8.644;2023-09-07T07:18:17;25.70;99.90
7129;DHT22;3606;52.930;8.644;2023-09-07T07:20:43;26.10;99.90
7129;DHT22;3606;52.930;8.644;2023-09-07T07:23:09;26.30;99.90
7129;DHT22;3606;52.930;8.644;2023-09-07T07:25:35;26.30;99.90
7129;DHT22;3606;52.930;8.644;2023-09-07T07:28:03;26.60;99.90
7129;DHT22;3606;52.930;8.644;2023-09-07T07:30:36;27.00;99.90
7129;DHT22;3606;52.930;8.644;2023-09-07T07:33:03;27.40;99.90
7129;DHT22;3606;52.930;8.644;2023-09-07T07:35:30;27.80;99.90
7129;DHT22;3606;52.930;8.644;2023-09-07T07:37:56;27.70;99.90
7129;DHT22;3606;52.930;8.644;2023-09-07T07:40:22;27.50;99.90
7129;DHT22;3606;52.930;8.644;2023-09-07T07:42:48;27.60;99.90
7129;DHT22;3606;52.930;8.644;2023-09-07T07:45:14;27.80;99.90
7129;DHT22;3606;52.930;8.644;2023-09-07T07:47:40;28.40;99.90
7129;DHT22;3606;52.930;8.644;2023-09-07T07:50:06;28.20;99.90
7129;DHT22;3606;52.930;8.644;2023-09-07T07:52:32;28.20;99.90
7129;DHT22;3606;52.930;8.644;2023-09-07T07:54:58;28.60;99.90
7129;DHT22;3606;52.930;8.644;2023-09-07T07:57:23;28.80;99.90
7129;DHT22;3606;52.930;8.644;2023-09-07T07:59:49;29.00;99.90
7129;DHT22;3606;52.930;8.644;2023-09-07T08:02:14;29.20;99.90
7129;DHT22;3606;52.930;8.644;2023-09-07T08:04:41;29.30;99.90
7129;DHT22;3606;52.930;8.644;2023-09-07T08:07:07;29.50;99.90
7129;DHT22;3606;52.930;8.644;2023-09-07T08:09:34;29.70;99.90
7129;DHT22;3606;52.930;8.644;2023-09-07T08:12:00;29.50;99.90
7129;DHT22;3606;52.930;8.644;2023-09-07T08:14:29;29.30;99.90
7129;DHT22;3606;52.930;8.644;2023-09-07T08:16:54;29.60;99.90
7129;DHT22;3606;52.930;8.644;2023-09-07T08:19:20;29.50;99.90
7129;DHT22;3606;52.930;8.644;2023-09-07T08:21:46;29.60;99.90
7129;DHT22;3606;52.930;8.644;2023-09-07T08:24:12;30.20;99.90
7129;DHT22;3606;52.930;8.644;2023-09-07T08:26:38;30.60;99.90
7129;DHT22;3606;52.930;8.644;2023-09-07T08:29:04;31.00;99.90
7129;DHT22;3606;52.930;8.644;2023-09-07T08:31:35;31.40;99.90
7129;DHT22;3606;52.930;8.644;2023-09-07T08:34:01;31.90;99.90
7129;DHT22;3606;52.930;8.644;2023-09-07T08:36:29;32.00;99.90
7129;DHT22;3606;52.930;8.644;2023-09-07T08:38:57;32.50;99.90
7129;DHT22;3606;52.930;8.644;2023-09-07T08:41:26;32.10;99.90
7129;DHT22;3606;52.930;8.644;2023-09-07T08:43:54;32.30;99.90
7129;DHT22;3606;52.930;8.644;2023-09-07T08:46:22;32.90;99.90
7129;DHT22;3606;52.930;8.644;2023-09-07T08:48:52;32.60;99.90
7129;DHT22;3606;52.930;8.644;2023-09-07T08:51:20;32.20;99.90
7129;DHT22;3606;52.930;8.644;2023-09-07T08:53:46;32.30;99.90
7129;DHT22;3606;52.930;8.644;2023-09-07T08:56:12;33.00;99.90
7129;DHT22;3606;52.930;8.644;2023-09-07T08:58:38;33.50;99.90
7129;DHT22;3606;52.930;8.644;2023-09-07T09:01:06;33.40;99.90
7129;DHT22;3606;52.930;8.644;2023-09-07T09:03:31;32.90;99.90
7129;DHT22;3606;52.930;8.644;2023-09-07T09:05:57;32.90;99.90
7129;DHT22;3606;52.930;8.644;2023-09-07T09:08:23;32.20;99.90
7129;DHT22;3606;52.930;8.644;2023-09-07T09:11:10;32.60;99.90
7129;DHT22;3606;52.930;8.644;2023-09-07T09:13:36;32.50;99.90
7129;DHT22;3606;52.930;8.644;2023-09-07T09:16:02;32.20;99.90
7129;DHT22;3606;52.930;8.644;2023-09-07T09:18:28;32.30;99.90
7129;DHT22;3606;52.930;8.644;2023-09-07T09:20:57;32.30;99.90
7129;DHT22;3606;52.930;8.644;2023-09-07T09:23:34;33.20;99.90
7129;DHT22;3606;52.930;8.644;2023-09-07T09:26:00;33.90;99.90
7129;DHT22;3606;52.930;8.644;2023-09-07T09:28:26;33.60;99.90
7129;DHT22;3606;52.930;8.644;2023-09-07T09:30:53;33.20;99.90
7129;DHT22;3606;52.930;8.644;2023-09-07T09:33:22;33.50;99.90
7129;DHT22;3606;52.930;8.644;2023-09-07T09:35:49;33.60;99.90
7129;DHT22;3606;52.930;8.644;2023-09-07T09:38:16;33.50;99.90
7129;DHT22;3606;52.930;8.644;2023-09-07T09:40:42;33.60;99.90
7129;DHT22;3606;52.930;8.644;2023-09-07T09:43:08;33.40;99.90
7129;DHT22;3606;52.930;8.644;2023-09-07T09:45:34;33.70;99.90
7129;DHT22;3606;52.930;8.644;2023-09-07T09:48:01;33.40;99.90
7129;DHT22;3606;52.930;8.644;2023-09-07T09:50:28;32.90;99.90
7129;DHT22;3606;52.930;8.644;2023-09-07T09:52:54;32.80;99.90
7129;DHT22;3606;52.930;8.644;2023-09-07T09:55:20;32.60;99.90
7129;DHT22;3606;52.930;8.644;2023-09-07T09:57:47;32.60;99.90
7129;DHT22;3606;52.930;8.644;2023-09-07T10:00:13;32.90;99.90
7129;DHT22;3606;52.930;8.644;2023-09-07T10:03:04;33.70;99.90
7129;DHT22;3606;52.930;8.644;2023-09-07T10:05:31;34.40;99.90
7129;DHT22;3606;52.930;8.644;2023-09-07T10:08:18;34.10;99.90
7129;DHT22;3606;52.930;8.644;2023-09-07T10:10:46;33.90;99.90
7129;DHT22;3606;52.930;8.644;2023-09-07T10:13:14;33.70;99.90
7129;DHT22;3606;52.930;8.644;2023-09-07T10:15:40;33.80;99.90
7129;DHT22;3606;52.930;8.644;2023-09-07T10:18:32;33.80;99.90
7129;DHT22;3606;52.930;8.644;2023-09-07T10:20:58;34.40;99.90
7129;DHT22;3606;52.930;8.644;2023-09-07T10:23:40;34.70;99.90
7129;DHT22;3606;52.930;8.644;2023-09-07T10:26:15;34.80;99.90
7129;DHT22;3606;52.930;8.644;2023-09-07T10:28:41;34.20;99.90
7129;DHT22;3606;52.930;8.644;2023-09-07T10:31:17;34.70;99.90
7129;DHT22;3606;52.930;8.644;2023-09-07T10:33:43;34.70;99.90
7129;DHT22;3606;52.930;8.644;2023-09-07T10:36:23;34.30;99.90
7129;DHT22;3606;52.930;8.644;2023-09-07T10:38:50;34.30;99.90
7129;DHT22;3606;52.930;8.644;2023-09-07T10:41:18;33.80;99.90
7129;DHT22;3606;52.930;8.644;2023-09-07T10:43:52;34.10;99.90
7129;DHT22;3606;52.930;8.644;2023-09-07T10:46:19;34.30;99.90
7129;DHT22;3606;52.930;8.644;2023-09-07T10:48:45;34.70;99.90
7129;DHT22;3606;52.930;8.644;2023-09-07T10:51:13;35.50;99.90
7129;DHT22;3606;52.930;8.644;2023-09-07T10:53:40;35.60;99.90
7129;DHT22;3606;52.930;8.644;2023-09-07T10:56:06;35.30;99.90
7129;DHT22;3606;52.930;8.644;2023-09-07T10:58:33;35.40;99.90
7129;DHT22;3606;52.930;8.644;2023-09-07T11:01:00;35.50;99.90
7129;DHT22;3606;52.930;8.644;2023-09-07T11:03:27;35.90;99.90
7129;DHT22;3606;52.930;8.644;2023-09-07T11:06:15;36.20;99.90
7129;DHT22;3606;52.930;8.644;2023-09-07T11:08:43;36.50;99.90
7129;DHT22;3606;52.930;8.644;2023-09-07T11:11:08;36.20;99.90
7129;DHT22;3606;52.930;8.644;2023-09-07T11:13:34;35.60;99.90
7129;DHT22;3606;52.930;8.644;2023-09-07T11:16:01;34.70;99.90
7129;DHT22;3606;52.930;8.644;2023-09-07T11:18:27;34.50;99.90
7129;DHT22;3606;52.930;8.644;2023-09-07T11:20:53;34.80;99.90
7129;DHT22;3606;52.930;8.644;2023-09-07T11:23:20;35.20;99.90
7129;DHT22;3606;52.930;8.644;2023-09-07T11:25:47;35.30;99.90
7129;DHT22;3606;52.930;8.644;2023-09-07T11:28:14;35.40;99.90
7129;DHT22;3606;52.930;8.644;2023-09-07T11:30:51;35.70;99.90
7129;DHT22;3606;52.930;8.644;2023-09-07T11:33:16;35.30;99.90
7129;DHT22;3606;52.930;8.644;2023-09-07T11:35:42;34.60;99.90
7129;DHT22;3606;52.930;8.644;2023-09-07T11:38:11;34.60;99.90
7129;DHT22;3606;52.930;8.644;2023-09-07T11:40:37;33.80;99.90
7129;DHT22;3606;52.930;8.644;2023-09-07T11:43:03;34.10;99.90
7129;DHT22;3606;52.930;8.644;2023-09-07T11:45:28;34.50;99.90
7129;DHT22;3606;52.930;8.644;2023-09-07T11:47:54;34.30;99.90
7129;DHT22;3606;52.930;8.644;2023-09-07T11:50:23;33.90;99.90
7129;DHT22;3606;52.930;8.644;2023-09-07T11:52:50;33.70;99.90
7129;DHT22;3606;52.930;8.644;2023-09-07T11:55:15;33.50;99.90
7129;DHT22;3606;52.930;8.644;2023-09-07T11:57:41;33.50;99.90
7129;DHT22;3606;52.930;8.644;2023-09-07T12:00:07;33.40;99.90
7129;DHT22;3606;52.930;8.644;2023-09-07T12:02:35;33.20;99.90
7129;DHT22;3606;52.930;8.644;2023-09-07T12:05:00;33.50;99.90
7129;DHT22;3606;52.930;8.644;2023-09-07T12:07:28;33.30;99.90
7129;DHT22;3606;52.930;8.644;2023-09-07T12:09:54;32.90;99.90
7129;DHT22;3606;52.930;8.644;2023-09-07T12:12:23;33.00;99.90
7129;DHT22;3606;52.930;8.644;2023-09-07T12:14:48;32.80;99.90
7129;DHT22;3606;52.930;8.644;2023-09-07T12:17:14;32.80;99.90
7129;DHT22;3606;52.930;8.644;2023-09-07T12:19:39;32.70;99.90
7129;DHT22;3606;52.930;8.644;2023-09-07T12:22:07;32.70;99.90
7129;DHT22;3606;52.930;8.644;2023-09-07T12:24:33;32.60;99.90
7129;DHT22;3606;52.930;8.644;2023-09-07T12:26:59;32.50;99.90
7129;DHT22;3606;52.930;8.644;2023-09-07T12:29:25;32.70;99.90
7129;DHT22;3606;52.930;8.644;2023-09-07T12:31:51;32.90;99.90
7129;DHT22;3606;52.930;8.644;2023-09-07T12:34:16;32.80;99.90
7129;DHT22;3606;52.930;8.644;2023-09-07T12:36:42;32.90;99.90
7129;DHT22;3606;52.930;8.644;2023-09-07T12:39:08;32.50;99.90
7129;DHT22;3606;52.930;8.644;2023-09-07T12:41:33;32.70;99.90
7129;DHT22;3606;52.930;8.644;2023-09-07T12:43:59;32.80;99.90
7129;DHT22;3606;52.930;8.644;2023-09-07T12:46:25;33.20;99.90
7129;DHT22;3606;52.930;8.644;2023-09-07T12:48:50;33.40;99.90
7129;DHT22;3606;52.930;8.644;2023-09-07T12:51:16;33.50;99.90
7129;DHT22;3606;52.930;8.644;2023-09-07T12:53:42;33.60;99.90
7129;DHT22;3606;52.930;8.644;2023-09-07T12:56:07;34.10;99.90
7129;DHT22;3606;52.930;8.644;2023-09-07T12:58:33;34.50;99.90
7129;DHT22;3606;52.930;8.644;2023-09-07T13:00:58;34.80;99.90
7129;DHT22;3606;52.930;8.644;2023-09-07T13:03:24;35.30;99.90
7129;DHT22;3606;52.930;8.644;2023-09-07T13:05:49;35.40;99.90
7129;DHT22;3606;52.930;8.644;2023-09-07T13:08:15;35.30;99.90
7129;DHT22;3606;52.930;8.644;2023-09-07T13:10:41;35.60;99.90
7129;DHT22;3606;52.930;8.644;2023-09-07T13:13:07;35.30;99.90
7129;DHT22;3606;52.930;8.644;2023-09-07T13:15:33;35.40;99.90
7129;DHT22;3606;52.930;8.644;2023-09-07T13:17:59;35.60;99.90
7129;DHT22;3606;52.930;8.644;2023-09-07T13:20:24;36.00;99.90
7129;DHT22;3606;52.930;8.644;2023-09-07T13:22:50;36.00;99.90
7129;DHT22;3606;52.930;8.644;2023-09-07T13:25:15;36.10;99.90
7129;DHT22;3606;52.930;8.644;2023-09-07T13:27:41;36.20;99.90
7129;DHT22;3606;52.930;8.644;2023-09-07T13:30:07;36.20;99.90
7129;DHT22;3606;52.930;8.644;2023-09-07T13:32:34;36.50;99.90
7129;DHT22;3606;52.930;8.644;2023-09-07T13:34:59;36.70;99.90
7129;DHT22;3606;52.930;8.644;2023-09-07T13:37:25;36.90;99.90
7129;DHT22;3606;52.930;8.644;2023-09-07T13:39:51;36.90;99.90
7129;DHT22;3606;52.930;8.644;2023-09-07T13:42:17;37.50;99.90
7129;DHT22;3606;52.930;8.644;2023-09-07T13:44:42;38.50;99.90
7129;DHT22;3606;52.930;8.644;2023-09-07T13:47:10;38.80;99.90
7129;DHT22;3606;52.930;8.644;2023-09-07T13:49:36;38.60;99.90
7129;DHT22;3606;52.930;8.644;2023-09-07T13:52:02;38.50;99.90
7129;DHT22;3606;52.930;8.644;2023-09-07T13:54:28;38.10;99.90
7129;DHT22;3606;52.930;8.644;2023-09-07T13:56:54;38.00;99.90
7129;DHT22;3606;52.930;8.644;2023-09-07T13:59:35;37.50;99.90
7129;DHT22;3606;52.930;8.644;2023-09-07T14:02:33;37.60;99.90
7129;DHT22;3606;52.930;8.644;2023-09-07T14:05:31;37.30;99.90
7129;DHT22;3606;52.930;8.644;2023-09-07T14:07:59;37.00;99.90
7129;DHT22;3606;52.930;8.644;2023-09-07T14:11:03;37.30;99.90
7129;DHT22;3606;52.930;8.644;2023-09-07T14:13:31;36.30;99.90
7129;DHT22;3606;52.930;8.644;2023-09-07T14:15:59;35.90;99.90
7129;DHT22;3606;52.930;8.644;2023-09-07T14:18:53;35.80;99.90
7129;DHT22;3606;52.930;8.644;2023-09-07T14:21:26;35.60;99.90
7129;DHT22;3606;52.930;8.644;2023-09-07T14:24:01;35.70;99.90
7129;DHT22;3606;52.930;8.644;2023-09-07T14:29:25;36.00;99.90
7129;DHT22;3606;52.930;8.644;2023-09-07T14:35:33;35.60;99.90
7129;DHT22;3606;52.930;8.644;2023-09-07T14:38:08;35.50;99.90
7129;DHT22;3606;52.930;8.644;2023-09-07T14:40:33;36.30;99.90
7129;DHT22;3606;52.930;8.644;2023-09-07T14:42:59;36.50;99.90
7129;DHT22;3606;52.930;8.644;2023-09-07T14:45:27;36.50;99.90
7129;DHT22;3606;52.930;8.644;2023-09-07T14:47:52;36.70;99.90
7129;DHT22;3606;52.930;8.644;2023-09-07T14:50:21;36.20;99.90
7129;DHT22;3606;52.930;8.644;2023-09-07T14:52:52;35.30;99.90
7129;DHT22;3606;52.930;8.644;2023-09-07T14:55:18;34.80;99.90
7129;DHT22;3606;52.930;8.644;2023-09-07T14:57:47;34.80;99.90
7129;DHT22;3606;52.930;8.644;2023-09-07T15:00:47;34.70;99.90
7129;DHT22;3606;52.930;8.644;2023-09-07T15:03:16;34.40;99.90
7129;DHT22;3606;52.930;8.644;2023-09-07T15:05:41;34.30;99.90
7129;DHT22;3606;52.930;8.644;2023-09-07T15:08:09;34.30;99.90
7129;DHT22;3606;52.930;8.644;2023-09-07T15:10:35;34.10;99.90
7129;DHT22;3606;52.930;8.644;2023-09-07T15:13:03;34.20;99.90
7129;DHT22;3606;52.930;8.644;2023-09-07T15:15:32;34.60;99.90
7129;DHT22;3606;52.930;8.644;2023-09-07T15:20:57;34.20;99.90
7129;DHT22;3606;52.930;8.644;2023-09-07T15:23:23;34.10;99.90
7129;DHT22;3606;52.930;8.644;2023-09-07T15:25:48;33.70;99.90
7129;DHT22;3606;52.930;8.644;2023-09-07T15:28:14;32.90;99.90
7129;DHT22;3606;52.930;8.644;2023-09-07T15:34:33;30.80;99.90
7129;DHT22;3606;52.930;8.644;2023-09-07T15:47:11;28.90;99.90
7129;DHT22;3606;52.930;8.644;2023-09-07T15:49:38;28.70;99.90
7129;DHT22;3606;52.930;8.644;2023-09-07T15:52:38;28.60;99.90
7129;DHT22;3606;52.930;8.644;2023-09-07T15:59:04;28.40;99.90
7129;DHT22;3606;52.930;8.644;2023-09-07T16:05:05;28.20;99.90
7129;DHT22;3606;52.930;8.644;2023-09-07T16:07:33;28.10;99.90
7129;DHT22;3606;52.930;8.644;2023-09-07T16:10:08;28.00;99.90
7129;DHT22;3606;52.930;8.644;2023-09-07T16:13:04;28.00;99.90
7129;DHT22;3606;52.930;8.644;2023-09-07T16:15:50;27.90;99.90
7129;DHT22;3606;52.930;8.644;2023-09-07T16:18:43;27.90;99.90
7129;DHT22;3606;52.930;8.644;2023-09-07T16:21:29;27.80;99.90
7129;DHT22;3606;52.930;8.644;2023-09-07T16:24:21;27.70;99.90
7129;DHT22;3606;52.930;8.644;2023-09-07T16:27:06;27.60;99.90
7129;DHT22;3606;52.930;8.644;2023-09-07T16:29:32;27.60;99.90
7129;DHT22;3606;52.930;8.644;2023-09-07T16:39:24;27.30;99.90
7129;DHT22;3606;52.930;8.644;2023-09-07T16:41:55;27.20;99.90
7129;DHT22;3606;52.930;8.644;2023-09-07T16:48:33;27.10;99.90